Time;durP1;ratioP1;P1;durP2;ratioP2;P2;SDS_P1;SDS_P2;PMS_P1;PMS_P2;Temp;Humidity;BMP_temperature;BMP_pressure;BME280_temperature;BME280_humidity;BME280_pressure;Samples;Min_cycle;Max_cycle;Signal;HPM_P1;HPM_P2
2023/04/05 00:02:20;;;;;;;16.27;10.40;;;;;;;12.63;43.28;102609.78;5087889;28;20392;-69
2023/04/05 00:04:56;;;;;;;17.53;9.90;;;;;;;12.47;44.20;102604.34;5089223;28;20440;-68
2023/04/05 00:07:23;;;;;;;18.03;9.93;;;;;;;12.29;44.06;102607.66;5087393;28;20134;-68
2023/04/05 00:09:48;;;;;;;19.57;10.10;;;;;;;12.57;42.83;102610.59;5089599;28;20050;-68
2023/04/05 00:12:15;;;;;;;20.07;9.93;;;;;;;12.26;43.50;102609.38;5089482;28;20112;-68
2023/04/05 00:14:40;;;;;;;19.73;10.07;;;;;;;12.52;42.43;102613.16;5093144;28;20036;-68
2023/04/05 00:17:06;;;;;;;16.70;9.97;;;;;;;12.26;42.90;102610.25;5092111;28;20395;-68
2023/04/05 00:19:32;;;;;;;19.47;9.93;;;;;;;12.31;43.07;102602.44;5089876;28;20035;-69
2023/04/05 00:21:58;;;;;;;18.33;10.37;;;;;;;12.41;44.10;102603.44;5092219;28;20012;-69
2023/04/05 00:24:24;;;;;;;15.83;9.47;;;;;;;12.29;44.17;102604.16;5093573;28;20043;-68
2023/04/05 00:26:49;;;;;;;20.13;10.33;;;;;;;12.35;43.50;102591.09;5091251;28;20484;-68
2023/04/05 00:29:15;;;;;;;19.43;10.10;;;;;;;12.35;43.28;102598.97;5090588;28;20019;-69
2023/04/05 00:31:40;;;;;;;18.37;11.07;;;;;;;11.76;43.90;102597.38;5092651;28;20134;-69
2023/04/05 00:34:07;;;;;;;20.67;11.80;;;;;;;12.28;42.91;102598.06;5092213;28;20034;-68
2023/04/05 00:36:33;;;;;;;22.57;10.53;;;;;;;12.01;44.08;102594.25;5092661;28;20028;-68
2023/04/05 00:38:58;;;;;;;19.57;10.20;;;;;;;12.32;43.79;102589.34;5092646;28;20553;-69
2023/04/05 00:41:24;;;;;;;20.13;10.87;;;;;;;12.20;43.91;102589.22;5089905;28;20077;-69
2023/04/05 00:43:49;;;;;;;19.97;10.83;;;;;;;12.00;44.61;102592.47;5093235;28;20024;-69
2023/04/05 00:46:15;;;;;;;15.63;10.30;;;;;;;12.42;43.30;102582.47;5090781;28;20035;-68
2023/04/05 00:48:41;;;;;;;19.97;9.67;;;;;;;12.18;43.89;102580.44;5089866;28;20051;-68
2023/04/05 00:51:10;;;;;;;17.63;9.93;;;;;;;12.27;43.90;102575.31;5091914;28;20376;-69
2023/04/05 00:53:36;;;;;;;19.67;9.53;;;;;;;12.22;42.92;102579.63;5091551;28;20020;-69
2023/04/05 00:56:02;;;;;;;12.40;7.57;;;;;;;12.32;43.47;102585.84;5091563;28;20023;-69
2023/04/05 00:58:28;;;;;;;19.20;9.17;;;;;;;12.51;42.44;102579.03;5090824;28;20127;-69
2023/04/05 01:01:00;;;;;;;17.63;8.30;;;;;;;12.29;42.64;102584.06;5090326;28;20050;-70
2023/04/05 01:03:28;;;;;;;17.67;8.37;;;;;;;12.56;42.78;102575.59;5091203;28;20106;-69
2023/04/05 01:06:08;;;;;;;15.10;8.17;;;;;;;12.34;42.79;102565.78;5092996;28;20103;-69
2023/04/05 01:08:46;;;;;;;17.40;8.17;;;;;;;12.32;42.05;102576.25;5090717;28;20506;-69
2023/04/05 01:11:13;;;;;;;20.00;8.30;;;;;;;12.53;42.33;102564.22;5087685;28;20080;-69
2023/04/05 01:13:39;;;;;;;16.03;7.63;;;;;;;12.39;42.09;102564.94;5089608;28;20027;-69
2023/04/05 01:16:05;;;;;;;14.73;8.10;;;;;;;12.28;42.59;102565.69;5069991;28;20033;-69
2023/04/05 01:18:31;;;;;;;15.13;7.97;;;;;;;12.33;42.48;102564.88;5077328;28;20356;-68
2023/04/05 01:21:09;;;;;;;13.43;7.80;;;;;;;12.41;42.00;102566.72;5092464;28;20225;-68
2023/04/05 01:23:36;;;;;;;18.77;8.93;;;;;;;12.54;42.50;102552.84;5070673;28;20037;-68
2023/04/05 01:26:29;;;;;;;16.10;7.40;;;;;;;12.24;42.71;102550.78;5085898;28;20043;-69
2023/04/05 01:29:16;;;;;;;13.60;8.37;;;;;;;12.29;42.17;102557.84;5091412;28;20763;-69
2023/04/05 01:31:48;;;;;;;14.57;7.93;;;;;;;12.45;42.76;102552.78;5090903;28;20036;-68
2023/04/05 01:34:46;;;;;;;13.52;8.23;;;;;;;12.55;41.83;102551.97;5090374;28;20471;-68
2023/04/05 01:37:15;;;;;;;18.57;8.37;;;;;;;12.31;42.25;102550.88;5061278;28;20036;-69
2023/04/05 01:39:41;;;;;;;14.13;7.80;;;;;;;11.98;43.34;102552.28;5091853;28;20020;-69
2023/04/05 01:42:07;;;;;;;19.03;9.10;;;;;;;12.22;42.69;102550.78;5088979;28;20035;-69
2023/04/05 01:44:32;;;;;;;18.63;8.93;;;;;;;11.98;42.85;102547.03;5091377;28;20028;-70
2023/04/05 01:46:58;;;;;;;15.37;8.43;;;;;;;12.04;43.64;102547.09;5091154;28;20039;-69
2023/04/05 01:49:24;;;;;;;16.63;9.33;;;;;;;11.68;43.41;102543.16;5090091;28;20044;-69
2023/04/05 01:51:49;;;;;;;17.40;8.83;;;;;;;11.78;43.55;102543.25;5091532;28;20479;-69
2023/04/05 01:54:15;;;;;;;17.80;8.93;;;;;;;11.60;45.18;102546.53;5090457;28;20020;-69
2023/04/05 01:56:40;;;;;;;17.80;8.73;;;;;;;11.64;44.32;102541.34;5089217;28;20031;-68
2023/04/05 01:59:06;;;;;;;15.17;8.80;;;;;;;11.56;44.33;102537.75;5090432;28;20028;-69
2023/04/05 02:01:32;;;;;;;19.73;9.67;;;;;;;11.73;43.82;102529.22;5090652;28;20031;-69
2023/04/05 02:03:57;;;;;;;14.97;8.77;;;;;;;11.53;43.77;102528.09;5090357;28;20081;-69
2023/04/05 02:06:23;;;;;;;16.37;9.30;;;;;;;11.82;43.24;102524.97;5088248;28;20565;-69
2023/04/05 02:08:48;;;;;;;19.33;8.57;;;;;;;11.43;43.87;102520.09;5090927;28;20024;-69
2023/04/05 02:11:13;;;;;;;19.73;8.47;;;;;;;11.73;42.76;102513.50;5089080;28;20111;-68
2023/04/05 02:13:39;;;;;;;20.00;10.43;;;;;;;11.39;43.61;102519.22;5091574;28;20545;-69
2023/04/05 02:16:04;;;;;;;15.97;8.67;;;;;;;11.61;43.24;102509.88;5089819;28;20043;-69
2023/04/05 02:18:30;;;;;;;18.13;8.00;;;;;;;11.45;43.19;102513.16;5089521;28;20030;-69
2023/04/05 02:21:03;;;;;;;18.87;9.50;;;;;;;11.88;43.30;102508.44;5091468;28;20380;-69
2023/04/05 02:23:30;;;;;;;16.73;8.57;;;;;;;11.62;43.80;102506.41;5090047;28;20529;-69
2023/04/05 02:25:56;;;;;;;15.43;8.80;;;;;;;11.56;42.71;102501.09;5085899;28;20107;-69
2023/04/05 02:28:21;;;;;;;14.30;8.30;;;;;;;11.51;44.00;102503.66;5089443;28;20035;-69
2023/04/05 02:30:47;;;;;;;17.33;9.57;;;;;;;11.70;43.85;102498.63;5091447;28;20032;-69
2023/04/05 02:33:12;;;;;;;15.77;8.63;;;;;;;12.03;43.20;102503.41;5090490;28;20054;-68
2023/04/05 02:35:38;;;;;;;16.90;9.33;;;;;;;11.86;42.71;102494.47;5089734;28;20111;-69
2023/04/05 02:38:07;;;;;;;16.97;8.67;;;;;;;11.95;42.10;102491.97;5090439;28;20042;-71
2023/04/05 02:40:33;;;;;;;18.43;9.77;;;;;;;11.77;42.10;102489.09;5089251;28;20915;-69
2023/04/05 02:42:59;;;;;;;13.97;8.67;;;;;;;11.86;43.01;102494.47;5089609;28;20081;-69
2023/04/05 02:45:26;;;;;;;17.70;9.33;;;;;;;11.66;42.85;102486.34;5089327;28;20035;-69
2023/04/05 02:47:52;;;;;;;18.67;9.27;;;;;;;12.24;41.92;102486.16;5089383;28;20024;-69
2023/04/05 02:50:19;;;;;;;15.47;8.87;;;;;;;12.01;42.39;102493.78;5088516;28;20392;-69
2023/04/05 02:52:46;;;;;;;19.57;8.97;;;;;;;11.59;42.99;102479.28;5089726;28;20063;-69
2023/04/05 02:55:11;;;;;;;18.13;9.70;;;;;;;11.58;42.68;102488.91;5087376;28;20093;-69
2023/04/05 02:57:37;;;;;;;16.97;9.33;;;;;;;11.55;42.90;102483.59;5089549;28;20028;-69
2023/04/05 03:00:04;;;;;;;21.27;10.07;;;;;;;11.88;42.00;102482.22;5089009;28;20039;-69
2023/04/05 03:02:30;;;;;;;20.87;10.10;;;;;;;11.94;41.86;102477.09;5089890;28;20035;-69
2023/04/05 03:04:55;;;;;;;17.83;9.77;;;;;;;11.32;43.53;102480.69;5087570;28;20477;-69
2023/04/05 03:07:24;;;;;;;17.43;9.03;;;;;;;11.59;43.25;102474.94;5075758;28;20404;-69
2023/04/05 03:09:50;;;;;;;19.40;10.23;;;;;;;11.11;43.65;102476.94;5080652;28;20028;-69
2023/04/05 03:12:15;;;;;;;20.87;10.73;;;;;;;11.18;44.14;102477.91;5088800;28;20093;-69
2023/04/05 03:14:41;;;;;;;18.70;10.63;;;;;;;11.30;43.81;102472.81;5088282;28;20063;-68
2023/04/05 03:17:06;;;;;;;14.30;9.57;;;;;;;11.31;43.42;102471.97;5088648;28;20472;-69
2023/04/05 03:19:32;;;;;;;18.83;10.90;;;;;;;11.43;42.26;102463.41;5088802;28;20024;-69
2023/04/05 03:21:57;;;;;;;22.97;10.40;;;;;;;11.22;43.17;102474.47;5088898;28;20032;-69
2023/04/05 03:24:23;;;;;;;19.17;9.93;;;;;;;11.34;42.93;102474.63;5086842;28;20394;-69
2023/04/05 03:26:48;;;;;;;18.07;10.63;;;;;;;11.11;43.62;102470.81;5090418;28;20042;-68
2023/04/05 03:29:15;;;;;;;19.97;10.50;;;;;;;11.00;44.33;102474.19;5087962;28;20039;-68
2023/04/05 03:31:40;;;;;;;18.03;11.03;;;;;;;10.99;43.12;102469.81;5088657;28;20408;-69
2023/04/05 03:34:06;;;;;;;18.93;10.53;;;;;;;11.13;44.47;102470.00;5087334;28;20035;-69
2023/04/05 03:36:40;;;;;;;21.10;10.87;;;;;;;11.20;43.44;102474.44;5086255;28;20118;-68
2023/04/05 03:39:08;;;;;;;22.73;10.73;;;;;;;10.85;44.46;102466.09;5088179;28;20023;-69
2023/04/05 03:41:33;;;;;;;23.00;11.77;;;;;;;11.06;44.64;102468.16;5088328;28;20093;-68
2023/04/05 03:44:02;;;;;;;19.40;10.50;;;;;;;11.12;43.62;102472.59;5087911;28;20040;-68
2023/04/05 03:46:27;;;;;;;20.30;11.80;;;;;;;10.81;43.79;102461.66;5088123;28;20387;-69
2023/04/05 03:48:52;;;;;;;21.17;10.93;;;;;;;10.98;44.44;102464.53;5071894;28;20055;-68
2023/04/05 03:51:18;;;;;;;17.60;10.20;;;;;;;11.08;44.07;102476.03;5078298;28;20125;-69
2023/04/05 03:53:44;;;;;;;21.17;11.30;;;;;;;10.82;44.48;102474.75;5089930;28;20032;-69
2023/04/05 03:56:10;;;;;;;20.57;10.97;;;;;;;10.69;44.33;102472.84;5086038;28;20035;-68
2023/04/05 03:58:36;;;;;;;20.83;11.13;;;;;;;10.97;43.47;102475.88;5087559;28;20020;-68
2023/04/05 04:01:01;;;;;;;20.77;10.33;;;;;;;10.84;43.80;102467.84;5086620;28;20064;-69
2023/04/05 04:03:27;;;;;;;23.77;10.50;;;;;;;10.59;45.25;102477.06;5089102;28;20066;-68
2023/04/05 04:05:53;;;;;;;25.13;11.57;;;;;;;10.59;44.50;102473.53;5086703;28;20028;-69
2023/04/05 04:08:19;;;;;;;23.80;11.63;;;;;;;10.25;45.41;102471.22;5087908;28;20102;-69
2023/04/05 04:10:45;;;;;;;21.33;11.77;;;;;;;10.40;46.83;102470.63;5087006;28;20475;-68
2023/04/05 04:13:10;;;;;;;21.37;11.30;;;;;;;10.61;45.51;102462.25;5086824;28;20096;-70
2023/04/05 04:15:36;;;;;;;20.87;12.77;;;;;;;10.71;44.46;102465.00;5087552;28;20036;-69
2023/04/05 04:18:01;;;;;;;25.40;12.83;;;;;;;10.71;44.39;102458.03;5088998;28;20473;-69
2023/04/05 04:20:27;;;;;;;22.40;11.93;;;;;;;10.59;45.22;102466.59;5088827;28;20032;-69
2023/04/05 04:22:52;;;;;;;23.17;12.93;;;;;;;10.71;45.02;102465.88;5087500;28;20036;-69
2023/04/05 04:25:19;;;;;;;21.43;13.00;;;;;;;10.24;46.08;102468.56;5085198;28;20020;-68
2023/04/05 04:27:45;;;;;;;20.30;12.20;;;;;;;10.05;45.92;102463.00;5084079;28;20036;-69
2023/04/05 04:30:14;;;;;;;23.57;12.80;;;;;;;10.56;46.13;102461.28;5070052;28;20111;-69
2023/04/05 04:32:50;;;;;;;18.17;12.53;;;;;;;10.92;43.95;102460.09;5088550;28;20032;-69
2023/04/05 04:35:23;;;;;;;20.70;11.97;;;;;;;10.59;44.38;102463.97;5088158;28;20025;-68
2023/04/05 04:38:03;;;;;;;21.50;11.77;;;;;;;10.93;44.52;102456.63;5088036;28;20032;-70
2023/04/05 04:40:49;;;;;;;22.07;12.20;;;;;;;10.27;44.86;102461.66;5086264;28;20372;-68
2023/04/05 04:43:17;;;;;;;24.03;12.73;;;;;;;10.23;45.42;102464.19;5086967;28;20119;-69
2023/04/05 04:45:47;;;;;;;20.97;12.63;;;;;;;10.50;44.70;102450.75;5088321;28;20112;-69
2023/04/05 04:48:15;;;;;;;24.07;12.20;;;;;;;10.19;45.58;102456.31;5086984;28;20032;-68
2023/04/05 04:50:42;;;;;;;31.10;14.67;;;;;;;10.09;46.94;102463.94;5050807;28;20024;-68
2023/04/05 04:53:08;;;;;;;25.50;13.70;;;;;;;10.29;46.45;102452.13;5049285;28;20028;-69
2023/04/05 04:55:35;;;;;;;24.57;13.40;;;;;;;10.20;46.51;102454.56;5048207;28;20032;-69
2023/04/05 04:58:01;;;;;;;24.93;13.23;;;;;;;10.15;45.80;102450.97;5069084;28;20029;-69
2023/04/05 05:00:26;;;;;;;26.37;12.97;;;;;;;10.13;45.13;102455.31;5052092;28;20025;-69
2023/04/05 05:02:51;;;;;;;26.63;13.73;;;;;;;9.98;45.43;102456.78;5072599;28;20032;-68
2023/04/05 05:05:21;;;;;;;29.00;14.70;;;;;;;10.10;45.07;102456.13;5050956;28;20044;-68
2023/04/05 05:07:47;;;;;;;26.57;13.90;;;;;;;9.98;46.54;102448.94;5053666;28;20430;-68
2023/04/05 05:10:15;;;;;;;27.70;14.07;;;;;;;10.24;45.31;102455.50;5053158;28;20024;-68
2023/04/05 05:12:41;;;;;;;23.37;13.90;;;;;;;10.04;46.02;102455.16;5072259;28;20028;-68
2023/04/05 05:15:07;;;;;;;28.80;13.70;;;;;;;10.34;47.30;102455.72;5070091;28;20460;-69
2023/04/05 05:17:34;;;;;;;23.37;13.17;;;;;;;10.29;45.74;102459.06;5072283;28;20118;-69
2023/04/05 05:20:00;;;;;;;25.83;14.43;;;;;;;10.23;45.46;102459.84;5052946;28;20040;-69
2023/04/05 05:22:26;;;;;;;27.53;13.73;;;;;;;10.49;45.27;102454.22;5069913;28;20400;-69
2023/04/05 05:24:52;;;;;;;27.17;13.20;;;;;;;10.25;45.18;102460.75;5054347;28;20105;-69
2023/04/05 05:27:17;;;;;;;24.40;12.37;;;;;;;10.07;47.06;102456.09;5070623;28;20086;-69
2023/04/05 05:29:42;;;;;;;23.30;13.53;;;;;;;10.38;45.61;102461.88;5053341;28;20115;-68
2023/04/05 05:32:08;;;;;;;30.17;14.73;;;;;;;9.88;48.28;102465.31;5053640;28;20624;-68
2023/04/05 05:34:34;;;;;;;28.43;15.13;;;;;;;9.64;47.04;102465.72;5053218;28;20027;-68
2023/04/05 05:36:59;;;;;;;27.53;15.13;;;;;;;10.13;46.31;102466.63;5051448;28;20211;-68
2023/04/05 05:39:25;;;;;;;26.60;14.83;;;;;;;10.40;45.35;102469.72;5070904;28;20031;-68
2023/04/05 05:41:50;;;;;;;27.40;15.20;;;;;;;10.44;44.88;102469.81;5053531;28;20487;-69
2023/04/05 05:44:16;;;;;;;24.90;13.50;;;;;;;10.27;46.65;102463.41;5070774;28;20376;-69
2023/04/05 05:46:41;;;;;;;32.57;15.07;;;;;;;10.19;48.63;102472.00;5052555;28;20488;-69
2023/04/05 05:49:07;;;;;;;27.43;15.13;;;;;;;10.27;47.99;102469.50;5070124;28;20045;-68
2023/04/05 05:51:32;;;;;;;27.50;15.67;;;;;;;10.55;46.00;102470.00;5053370;28;20032;-69
2023/04/05 05:53:58;;;;;;;30.47;15.30;;;;;;;10.28;46.39;102473.88;5052984;28;20071;-68
2023/04/05 05:56:23;;;;;;;29.27;15.17;;;;;;;10.26;45.36;102472.06;5049354;28;20032;-69
2023/04/05 05:58:48;;;;;;;30.90;15.50;;;;;;;10.57;46.79;102468.28;5053655;28;20024;-69
2023/04/05 06:01:14;;;;;;;29.97;15.43;;;;;;;10.64;45.88;102472.75;5052134;28;20025;-68
2023/04/05 06:03:39;;;;;;;27.87;15.70;;;;;;;10.71;44.47;102465.00;5070896;28;20104;-69
2023/04/05 06:06:07;;;;;;;26.13;15.27;;;;;;;10.52;45.59;102462.09;5070162;28;20480;-68
2023/04/05 06:08:33;;;;;;;28.13;13.77;;;;;;;10.38;45.54;102466.22;5052623;28;20052;-69
2023/04/05 06:10:58;;;;;;;26.13;15.80;;;;;;;10.60;45.88;102468.31;5050468;28;20075;-68
2023/04/05 06:13:24;;;;;;;27.17;14.77;;;;;;;10.96;45.33;102459.31;5049452;28;20370;-68
2023/04/05 06:15:49;;;;;;;26.10;14.13;;;;;;;10.76;44.94;102474.69;5050108;28;20150;-69
2023/04/05 06:18:15;;;;;;;35.07;16.73;;;;;;;10.90;45.26;102467.03;5070203;28;20024;-69
2023/04/05 06:20:44;;;;;;;30.77;14.37;;;;;;;10.97;44.71;102474.13;5071217;28;20028;-69
2023/04/05 06:23:10;;;;;;;27.93;15.07;;;;;;;11.02;44.73;102471.59;5068755;28;20032;-68
2023/04/05 06:25:36;;;;;;;28.27;14.33;;;;;;;11.11;44.54;102466.47;5051409;28;20028;-69
2023/04/05 06:28:06;;;;;;;28.70;14.77;;;;;;;11.27;44.20;102451.84;5067416;28;20033;-68
2023/04/05 06:30:32;;;;;;;31.33;14.87;;;;;;;10.81;43.62;102474.75;5053066;28;20016;-69
2023/04/05 06:32:58;;;;;;;24.63;13.63;;;;;;;10.35;44.26;102473.16;5070089;28;20028;-69
2023/04/05 06:35:24;;;;;;;25.40;13.73;;;;;;;10.43;44.96;102472.41;5051406;28;20520;-68
2023/04/05 06:37:50;;;;;;;24.07;13.60;;;;;;;10.67;43.71;102475.44;5065019;28;22267;-68
2023/04/05 06:40:16;;;;;;;26.00;13.47;;;;;;;10.81;44.12;102477.34;5050568;28;20016;-68
2023/04/05 06:42:41;;;;;;;23.90;13.57;;;;;;;10.79;44.26;102468.63;5070668;28;20089;-67
2023/04/05 06:45:07;;;;;;;26.67;13.97;;;;;;;10.82;44.18;102463.44;5064794;28;20036;-67
2023/04/05 06:47:37;;;;;;;24.23;13.07;;;;;;;10.53;44.15;102474.31;5063927;28;20475;-68
2023/04/05 06:50:05;;;;;;;22.43;13.23;;;;;;;10.05;44.81;102469.97;5069941;28;20044;-69
2023/04/05 06:52:31;;;;;;;20.83;12.07;;;;;;;11.11;43.29;102457.75;5051868;28;20021;-68
2023/04/05 06:54:57;;;;;;;23.77;13.57;;;;;;;11.24;43.33;102462.28;5068642;28;20150;-67
2023/04/05 06:57:22;;;;;;;26.83;14.60;;;;;;;11.61;42.60;102456.59;5069502;28;20480;-69
2023/04/05 06:59:48;;;;;;;21.93;13.13;;;;;;;11.90;42.35;102462.19;5051492;28;20026;-69
2023/04/05 07:02:13;;;;;;;23.47;12.73;;;;;;;11.87;42.70;102459.53;5049772;28;20136;-68
2023/04/05 07:04:40;;;;;;;20.30;12.13;;;;;;;12.15;43.11;102454.59;5067567;28;20024;-69
2023/04/05 07:07:05;;;;;;;29.20;14.07;;;;;;;12.39;41.49;102460.06;5069487;28;20052;-69
2023/04/05 07:09:31;;;;;;;24.77;13.60;;;;;;;12.33;41.50;102454.75;5052396;28;20083;-69
2023/04/05 07:11:57;;;;;;;23.43;12.17;;;;;;;12.49;41.50;102458.38;5052140;28;20044;-69
2023/04/05 07:14:23;;;;;;;21.27;12.20;;;;;;;11.21;44.19;102457.03;5067124;28;20041;-69
2023/04/05 07:16:48;;;;;;;22.03;12.70;;;;;;;12.02;41.77;102449.25;5049982;28;20042;-69
2023/04/05 07:19:14;;;;;;;23.27;12.27;;;;;;;12.08;42.05;102453.66;5066121;28;20383;-68
2023/04/05 07:21:39;;;;;;;22.97;12.30;;;;;;;11.76;42.09;102440.19;5065620;28;20032;-69
2023/04/05 07:24:05;;;;;;;24.73;12.90;;;;;;;12.14;41.60;102442.34;5062265;28;20498;-69
2023/04/05 07:26:34;;;;;;;19.80;11.90;;;;;;;11.95;42.14;102442.19;5067636;28;20039;-68
2023/04/05 07:29:00;;;;;;;23.47;12.27;;;;;;;12.44;40.77;102440.84;5052049;28;20173;-69
2023/04/05 07:31:26;;;;;;;25.77;12.23;;;;;;;13.14;39.98;102431.69;5062773;28;20470;-68
2023/04/05 07:33:52;;;;;;;21.43;11.83;;;;;;;14.18;38.73;102438.13;5069079;28;20036;-69
2023/04/05 07:36:17;;;;;;;17.00;10.43;;;;;;;15.88;36.43;102429.72;5067694;28;20039;-69
2023/04/05 07:38:43;;;;;;;16.60;9.77;;;;;;;17.51;32.76;102429.00;5069167;28;20028;-69
2023/04/05 07:41:10;;;;;;;19.43;9.80;;;;;;;19.02;28.88;102425.63;5068894;28;20036;-70
2023/04/05 07:43:35;;;;;;;16.77;9.07;;;;;;;18.81;28.60;102423.34;5051116;28;20385;-69
2023/04/05 07:46:02;;;;;;;16.37;9.23;;;;;;;18.48;29.31;102431.00;5052012;28;20090;-68
2023/04/05 07:48:28;;;;;;;15.33;9.37;;;;;;;19.99;27.80;102434.13;5069119;28;20502;-68
2023/04/05 07:50:53;;;;;;;15.07;8.43;;;;;;;20.86;26.54;102421.28;5067706;28;20028;-69
2023/04/05 07:53:19;;;;;;;15.43;7.95;;;;;;;21.43;26.36;102425.78;5051031;28;20476;-69
2023/04/05 07:55:45;;;;;;;12.18;7.35;;;;;;;19.54;27.52;102428.94;5047835;28;20036;-69
2023/04/05 07:58:10;;;;;;;14.30;8.52;;;;;;;20.97;26.81;102416.53;5069168;28;20025;-69
2023/04/05 08:00:36;;;;;;;12.40;8.40;;;;;;;21.64;25.68;102418.97;5046393;28;20032;-69
2023/04/05 08:03:03;;;;;;;10.82;7.60;;;;;;;20.99;25.51;102420.00;5045303;28;20037;-68
2023/04/05 08:05:29;;;;;;;14.02;7.80;;;;;;;21.92;25.15;102417.19;5049043;28;20025;-69
2023/04/05 08:07:56;;;;;;;15.75;8.15;;;;;;;21.45;25.27;102421.28;5047287;28;20047;-69
2023/04/05 08:10:22;;;;;;;11.27;7.25;;;;;;;22.07;25.04;102422.00;5049414;28;20063;-69
2023/04/05 08:12:47;;;;;;;11.70;7.57;;;;;;;21.68;25.25;102425.06;5051015;28;20040;-69
2023/04/05 08:15:13;;;;;;;11.88;7.50;;;;;;;20.81;25.35;102416.06;5066536;28;20732;-68
2023/04/05 08:17:38;;;;;;;10.57;6.55;;;;;;;20.90;25.33;102422.94;5047731;28;20020;-68
2023/04/05 08:20:04;;;;;;;11.50;6.70;;;;;;;21.23;25.50;102414.91;5046241;28;20403;-69
2023/04/05 08:22:30;;;;;;;10.38;6.60;;;;;;;21.43;24.71;102415.16;5046222;28;20158;-69
2023/04/05 08:24:55;;;;;;;14.25;6.85;;;;;;;21.60;23.56;102416.47;5068109;28;20029;-68
2023/04/05 08:27:20;;;;;;;10.52;6.78;;;;;;;21.35;24.42;102414.53;5050614;28;20029;-68
2023/04/05 08:29:46;;;;;;;10.00;6.10;;;;;;;21.27;24.34;102411.22;5069560;28;20025;-68
2023/04/05 08:32:11;;;;;;;9.13;5.90;;;;;;;20.48;24.67;102414.28;5067658;28;20085;-69
2023/04/05 08:34:37;;;;;;;9.32;6.10;;;;;;;22.17;22.25;102411.91;5069937;28;20047;-69
2023/04/05 08:37:02;;;;;;;12.77;6.57;;;;;;;22.31;22.81;102404.34;5053765;28;20043;-67
2023/04/05 08:39:28;;;;;;;12.43;6.40;;;;;;;21.69;23.03;102402.84;5072365;28;20103;-68
2023/04/05 08:42:03;;;;;;;8.55;6.13;;;;;;;23.00;21.69;102394.81;5070036;28;20132;-68
2023/04/05 08:44:30;;;;;;;15.63;5.78;;;;;;;23.77;21.54;102394.47;5053090;28;20024;-68
2023/04/05 08:46:57;;;;;;;8.93;5.72;;;;;;;23.64;20.51;102393.22;5071446;28;20110;-68
2023/04/05 08:49:23;;;;;;;10.32;6.00;;;;;;;23.70;20.83;102399.19;5071277;28;20078;-68
2023/04/05 08:51:48;;;;;;;14.88;6.35;;;;;;;24.09;20.22;102402.09;5090251;28;20028;-68
2023/04/05 08:54:14;;;;;;;12.43;5.90;;;;;;;23.17;21.20;102403.03;5091919;28;20062;-68
2023/04/05 08:56:41;;;;;;;10.77;5.70;;;;;;;23.43;19.98;102401.16;5090009;28;20089;-67
2023/04/05 08:59:09;;;;;;;6.70;4.95;;;;;;;25.47;18.34;102397.69;5077951;28;20024;-68
2023/04/05 09:01:42;;;;;;;10.57;5.28;;;;;;;24.10;20.19;102395.78;5076836;28;20043;-68
2023/04/05 09:04:20;;;;;;;11.32;5.88;;;;;;;23.33;19.59;102394.47;5085654;28;20119;-67
2023/04/05 09:06:48;;;;;;;9.77;4.80;;;;;;;24.77;17.45;102401.81;5089756;28;20483;-68
2023/04/05 09:09:15;;;;;;;10.98;5.18;;;;;;;23.57;18.49;102397.06;5090514;28;20059;-67
2023/04/05 09:11:42;;;;;;;11.40;5.85;;;;;;;24.26;20.19;102396.00;5092477;28;20097;-68
2023/04/05 09:14:08;;;;;;;9.00;5.13;;;;;;;24.55;18.96;102392.94;5085934;28;20039;-68
2023/04/05 09:16:40;;;;;;;8.23;4.75;;;;;;;24.27;17.47;102403.09;5090043;28;20036;-68
2023/04/05 09:19:05;;;;;;;9.43;4.50;;;;;;;24.30;18.00;102397.63;5091497;28;20035;-67
2023/04/05 09:22:01;;;;;;;6.05;4.22;;;;;;;21.60;19.01;102405.81;5090822;28;20024;-67
2023/04/05 09:24:38;;;;;;;7.70;4.72;;;;;;;23.61;18.43;102388.00;5082626;28;20040;-68
2023/04/05 09:27:09;;;;;;;7.60;4.95;;;;;;;23.54;18.38;102393.56;5089800;28;20499;-68
2023/04/05 09:29:35;;;;;;;6.60;4.30;;;;;;;23.57;17.84;102391.72;5084288;28;20039;-68
2023/04/05 09:32:04;;;;;;;9.32;5.30;;;;;;;24.36;18.27;102394.69;5087172;28;20024;-67
2023/04/05 09:34:31;;;;;;;6.82;4.50;;;;;;;23.57;17.30;102402.41;5087065;28;20143;-68
2023/04/05 09:36:57;;;;;;;6.57;4.57;;;;;;;24.11;17.55;102395.75;5089704;28;20114;-68
2023/04/05 09:39:32;;;;;;;6.72;4.80;;;;;;;25.01;16.89;102389.13;5087704;28;20122;-68
2023/04/05 09:42:05;;;;;;;7.85;4.40;;;;;;;24.73;17.19;102396.63;5081809;28;20066;-68
2023/04/05 09:44:55;;;;;;;6.97;4.38;;;;;;;25.14;15.73;102392.97;5086776;28;20027;-67
2023/04/05 09:47:26;;;;;;;8.93;4.72;;;;;;;25.42;16.54;102378.28;5089246;28;20042;-68
2023/04/05 09:49:51;;;;;;;8.48;4.85;;;;;;;25.03;15.99;102392.59;5059363;28;20056;-68
2023/04/05 09:52:22;;;;;;;8.43;5.68;;;;;;;24.58;16.76;102385.69;5053198;28;20024;-67
2023/04/05 09:54:48;;;;;;;9.27;5.70;;;;;;;24.32;17.10;102379.72;5045170;28;20032;-68
2023/04/05 09:57:17;;;;;;;9.63;5.60;;;;;;;23.15;18.00;102380.91;5055662;28;20037;-68
2023/04/05 09:59:44;;;;;;;7.82;5.22;;;;;;;24.36;16.10;102376.00;5050371;28;20024;-67
2023/04/05 10:02:10;;;;;;;11.55;5.68;;;;;;;22.61;18.06;102382.00;5069841;28;20028;-68
2023/04/05 10:04:40;;;;;;;10.50;5.75;;;;;;;23.99;16.95;102372.25;5048431;28;20021;-68
2023/04/05 10:07:08;;;;;;;9.05;5.30;;;;;;;24.77;16.84;102365.28;5052831;28;20029;-68
2023/04/05 10:09:34;;;;;;;10.65;6.20;;;;;;;22.85;18.62;102373.09;5046934;28;20020;-68
2023/04/05 10:12:01;;;;;;;10.55;5.70;;;;;;;24.02;18.11;102367.63;5052332;28;20399;-68
2023/04/05 10:14:26;;;;;;;11.13;5.95;;;;;;;24.01;17.13;102365.03;5048060;28;20095;-67
2023/04/05 10:17:04;;;;;;;11.13;5.97;;;;;;;23.52;17.67;102368.78;5052116;28;20119;-67
2023/04/05 10:19:47;;;;;;;13.25;6.72;;;;;;;24.72;17.28;102360.13;5064219;28;20484;-68
2023/04/05 10:22:47;;;;;;;11.15;5.88;;;;;;;24.04;17.83;102364.88;5063309;28;20039;-68
2023/04/05 10:25:25;;;;;;;9.45;5.93;;;;;;;23.98;17.16;102360.66;5044832;28;20025;-69
2023/04/05 10:28:01;;;;;;;10.85;5.68;;;;;;;21.71;19.12;102370.84;5059397;28;20039;-68
2023/04/05 10:30:33;;;;;;;10.27;6.00;;;;;;;23.16;17.83;102363.97;5060875;28;20052;-68
2023/04/05 10:33:13;;;;;;;7.45;5.50;;;;;;;23.74;18.25;102361.66;5049322;28;20020;-68
2023/04/05 10:35:43;;;;;;;11.70;5.90;;;;;;;24.30;17.27;102360.22;5050134;28;20032;-68
2023/04/05 10:38:20;;;;;;;10.02;5.32;;;;;;;23.59;17.88;102361.38;5040849;28;20040;-68
2023/04/05 10:40:49;;;;;;;12.63;6.20;;;;;;;23.37;19.31;102354.25;5067470;28;20028;-68
2023/04/05 10:43:21;;;;;;;15.48;6.15;;;;;;;22.92;18.62;102355.09;5033258;28;20035;-68
2023/04/05 10:45:50;;;;;;;9.88;7.07;;;;;;;24.00;18.05;102352.59;5041940;28;20146;-68
2023/04/05 10:48:37;;;;;;;11.40;5.68;;;;;;;24.45;17.60;102348.84;5068552;28;20031;-67
2023/04/05 10:51:06;;;;;;;13.88;5.85;;;;;;;24.01;18.17;102354.34;5051170;28;20044;-68
2023/04/05 10:53:32;;;;;;;11.80;5.93;;;;;;;23.79;18.76;102357.88;5048633;28;20493;-69
2023/04/05 10:56:00;;;;;;;9.25;6.30;;;;;;;23.53;18.82;102343.84;5060926;28;20112;-69
2023/04/05 10:58:27;;;;;;;8.85;5.93;;;;;;;23.96;18.81;102345.66;5068002;28;20043;-68
2023/04/05 11:00:55;;;;;;;10.30;5.90;;;;;;;24.54;17.50;102331.53;5051729;28;20140;-68
2023/04/05 11:03:49;;;;;;;8.30;6.07;;;;;;;25.10;17.06;102340.56;5040948;28;20028;-68
2023/04/05 11:06:27;;;;;;;9.13;6.10;;;;;;;25.09;17.03;102333.47;5064645;28;20036;-68
2023/04/05 11:09:21;;;;;;;8.70;5.88;;;;;;;25.52;15.98;102330.53;5048738;28;20047;-68
2023/04/05 11:11:49;;;;;;;10.38;6.22;;;;;;;23.86;17.19;102329.13;5069798;28;20036;-69
2023/04/05 11:14:24;;;;;;;8.38;6.15;;;;;;;21.08;19.97;102344.44;5067762;28;20035;-69
2023/04/05 11:16:54;;;;;;;8.02;5.90;;;;;;;23.13;18.42;102333.88;5068303;28;20063;-69
2023/04/05 11:19:20;;;;;;;12.70;6.70;;;;;;;24.80;17.01;102325.03;5050709;28;20518;-69